TAF PAJN
AMD PAJN 280738Z 2808/2906 09003KT 6SM -SHSN BR FEW005 BKN035 TEMPO 2808/2810 1SM -SN BR BKN015 FM281000 00000KT 2SM -SHSN BR FEW005 BKN025 TEMPO 2810/2814 3/4SM -SN BR BKN010 FM281400 11004KT 4SM -SHSN BR FEW005 BKN025=
METAR PAJN
WC PAJN
WS PAJN
WV PAJN